createdAt,value
2022-10-31T00:01:16.574Z,97859.44
2022-10-31T00:03:44.632Z,97866.94
2022-10-31T00:06:12.866Z,97834.84
2022-10-31T00:08:40.740Z,97951.84
2022-10-31T00:11:35.147Z,97976.63
2022-10-31T00:14:03.173Z,98003.28
2022-10-31T00:16:31.931Z,98034.97
2022-10-31T00:19:02.160Z,98053.84
2022-10-31T00:21:32.082Z,98031.09
2022-10-31T00:24:00.636Z,98026.16
2022-10-31T00:26:29.599Z,98013.34
2022-10-31T00:29:06.493Z,97999.97
2022-10-31T00:31:34.476Z,97994.19
2022-10-31T00:34:03.885Z,97999.81
2022-10-31T00:36:33.864Z,97974.75
2022-10-31T00:39:05.259Z,97955.16
2022-10-31T00:41:33.662Z,97982.78
2022-10-31T00:44:03.084Z,97994.81
2022-10-31T00:46:31.403Z,98003.50
2022-10-31T00:48:59.273Z,98003.03
2022-10-31T00:51:27.279Z,98011.91
2022-10-31T00:53:55.205Z,98037.88
2022-10-31T00:56:23.257Z,98045.00
2022-10-31T00:58:51.205Z,98028.81
2022-10-31T01:01:20.881Z,98046.31
2022-10-31T01:03:49.230Z,98059.03
2022-10-31T01:06:17.371Z,98024.59
2022-10-31T01:08:45.504Z,98029.94
2022-10-31T01:11:18.225Z,97997.38
2022-10-31T01:13:46.950Z,98026.13
2022-10-31T01:16:19.632Z,98019.19
2022-10-31T01:18:55.331Z,98031.56
2022-10-31T01:21:24.833Z,98049.34
2022-10-31T01:23:55.097Z,98090.44
2022-10-31T01:26:24.387Z,98098.72
2022-10-31T01:28:54.171Z,98081.13
2022-10-31T01:31:25.763Z,98049.34
2022-10-31T01:33:56.060Z,98045.97
2022-10-31T01:36:25.887Z,98023.53
2022-10-31T01:38:56.081Z,98010.69
2022-10-31T01:41:38.229Z,98013.06
2022-10-31T01:44:44.859Z,98017.31
2022-10-31T01:47:17.236Z,98042.38
2022-10-31T01:49:50.803Z,98077.06
2022-10-31T01:52:22.388Z,98074.06
2022-10-31T01:54:54.917Z,98073.28
2022-10-31T01:57:24.366Z,98080.06
2022-10-31T02:00:05.967Z,98085.97
2022-10-31T02:02:41.748Z,98085.50
2022-10-31T02:05:14.760Z,98090.72
2022-10-31T02:07:50.430Z,98069.56
2022-10-31T02:10:19.510Z,98068.38
2022-10-31T02:12:48.290Z,98049.09
2022-10-31T02:15:16.711Z,98044.72
2022-10-31T02:17:45.291Z,98048.25
2022-10-31T02:20:18.492Z,98046.78
2022-10-31T02:23:10.593Z,98061.00
2022-10-31T02:25:58.686Z,98063.06
2022-10-31T02:28:55.851Z,98067.47
2022-10-31T02:31:36.933Z,98052.91
2022-10-31T02:34:15.572Z,98063.38
2022-10-31T02:37:08.175Z,98069.50
2022-10-31T02:39:44.709Z,98071.69
2022-10-31T02:42:19.692Z,98117.38
2022-10-31T02:44:57.029Z,98132.63
2022-10-31T02:47:31.321Z,98100.31
2022-10-31T02:50:02.836Z,98101.50
2022-10-31T02:52:32.893Z,98118.25
2022-10-31T02:55:14.163Z,98112.19
2022-10-31T02:57:44.656Z,98106.78
2022-10-31T03:00:13.370Z,98124.41
2022-10-31T03:02:54.763Z,98138.59
2022-10-31T03:05:35.056Z,98128.81
2022-10-31T03:08:14.185Z,98087.53
2022-10-31T03:10:49.569Z,98046.59
2022-10-31T03:13:25.487Z,97998.59
2022-10-31T03:16:07.730Z,97963.59
2022-10-31T03:18:41.619Z,97909.69
2022-10-31T03:21:14.321Z,97898.88
2022-10-31T03:23:44.157Z,97890.47
2022-10-31T03:26:25.786Z,97865.47
2022-10-31T03:28:58.415Z,97863.63
2022-10-31T03:31:31.029Z,97849.25
2022-10-31T03:34:02.409Z,97836.28
2022-10-31T03:36:43.755Z,97831.41
2022-10-31T03:39:15.561Z,97815.19
2022-10-31T03:41:49.552Z,97823.59
2022-10-31T03:44:21.592Z,97821.91
2022-10-31T03:46:58.401Z,97807.41
2022-10-31T03:49:28.725Z,97813.66
2022-10-31T03:52:04.465Z,97820.28
2022-10-31T03:54:38.031Z,97816.38
2022-10-31T03:57:11.673Z,97802.72
2022-10-31T03:59:44.539Z,97805.09
2022-10-31T04:02:16.921Z,97811.69
2022-10-31T04:04:49.236Z,97794.69
2022-10-31T04:07:20.107Z,97828.25
2022-10-31T04:10:04.289Z,97848.69
2022-10-31T04:12:34.548Z,97876.59
2022-10-31T04:15:16.017Z,97921.66
2022-10-31T04:17:47.317Z,97938.09
2022-10-31T04:20:19.581Z,97924.75
2022-10-31T04:22:47.591Z,97941.97
2022-10-31T04:25:23.317Z,97941.97
2022-10-31T04:27:53.884Z,97959.91
2022-10-31T04:30:22.045Z,97967.19
2022-10-31T04:32:50.314Z,97973.09
2022-10-31T04:35:19.879Z,97974.28
2022-10-31T04:37:48.148Z,97993.06
2022-10-31T04:40:16.302Z,97989.66
2022-10-31T04:42:44.143Z,97971.06
2022-10-31T04:45:15.547Z,97945.16
2022-10-31T04:47:46.577Z,97920.34
2022-10-31T04:50:14.920Z,97900.22
2022-10-31T04:52:45.711Z,97895.66
2022-10-31T04:55:17.099Z,97868.66
2022-10-31T04:58:07.863Z,97841.44
2022-10-31T05:00:37.211Z,97837.88
2022-10-31T05:03:06.387Z,97818.63
2022-10-31T05:05:34.530Z,97795.88
2022-10-31T05:08:06.685Z,97788.59
2022-10-31T05:10:34.737Z,97768.16
2022-10-31T05:13:06.208Z,97763.59
2022-10-31T05:15:54.549Z,97757.81
2022-10-31T05:18:42.491Z,97751.75
2022-10-31T05:21:42.246Z,97746.41
2022-10-31T05:24:13.146Z,97748.94
2022-10-31T05:26:49.952Z,97744.75
2022-10-31T05:29:18.892Z,97749.66
2022-10-31T05:32:11.684Z,97762.16
2022-10-31T05:34:59.160Z,97784.25
2022-10-31T05:37:45.055Z,97790.84
2022-10-31T05:40:16.688Z,97810.44
2022-10-31T05:42:45.628Z,97822.97
2022-10-31T05:45:16.860Z,97837.13
2022-10-31T05:47:55.149Z,97831.25
2022-10-31T05:50:43.875Z,97803.03
2022-10-31T05:53:12.928Z,97819.34
2022-10-31T05:55:44.236Z,97795.91
2022-10-31T05:58:19.452Z,97765.56
2022-10-31T06:01:04.237Z,97774.28
2022-10-31T06:03:32.163Z,97768.41
2022-10-31T06:06:03.810Z,97758.25
2022-10-31T06:08:36.646Z,97759.59
2022-10-31T06:11:09.644Z,97757.75
2022-10-31T06:13:56.177Z,97766.72
2022-10-31T06:16:28.151Z,97771.47
2022-10-31T06:18:58.981Z,97768.28
2022-10-31T06:21:52.904Z,97766.59
2022-10-31T06:24:21.440Z,97780.63
2022-10-31T06:26:56.842Z,97814.06
2022-10-31T06:29:25.384Z,97828.56
2022-10-31T06:32:08.256Z,97830.59
2022-10-31T06:34:42.170Z,97828.94
2022-10-31T06:37:12.669Z,97829.78
2022-10-31T06:39:43.594Z,97808.97
2022-10-31T06:42:35.400Z,97785.03
2022-10-31T06:45:03.528Z,97764.41
2022-10-31T06:48:19.106Z,97746.81
2022-10-31T06:51:05.683Z,97739.88
2022-10-31T06:53:34.106Z,97719.97
2022-10-31T06:59:10.548Z,97694.97
2022-10-31T07:02:06.878Z,97703.22
2022-10-31T07:04:35.340Z,97714.34
2022-10-31T07:07:04.202Z,97721.41
2022-10-31T07:09:32.603Z,97712.97
2022-10-31T07:12:04.174Z,97693.72
2022-10-31T07:14:52.461Z,97692.88
2022-10-31T07:17:20.679Z,97693.41
2022-10-31T07:19:48.836Z,97719.75
2022-10-31T07:22:18.317Z,97729.72
2022-10-31T07:24:46.393Z,97752.66
2022-10-31T07:27:41.686Z,97763.75
2022-10-31T07:30:14.733Z,97781.50
2022-10-31T07:32:44.848Z,97807.34
2022-10-31T07:35:17.047Z,97828.97
2022-10-31T07:37:49.181Z,97847.91
2022-10-31T07:40:18.841Z,97869.00
2022-10-31T07:42:48.481Z,97894.69
2022-10-31T07:45:37.746Z,97921.84
2022-10-31T07:48:37.504Z,97921.19
2022-10-31T07:51:27.912Z,97944.34
2022-10-31T07:54:14.032Z,97964.59
2022-10-31T07:56:41.876Z,97999.88
2022-10-31T07:59:10.799Z,97983.31
2022-10-31T08:01:40.247Z,97956.44
2022-10-31T08:04:29.623Z,97949.97
2022-10-31T08:07:16.165Z,97918.34
2022-10-31T08:09:49.872Z,97903.94
2022-10-31T08:12:22.309Z,97886.31
2022-10-31T08:14:50.932Z,97889.34
2022-10-31T08:17:22.281Z,97882.53
2022-10-31T08:19:57.548Z,97877.28
2022-10-31T08:22:36.031Z,97896.97
2022-10-31T08:25:07.382Z,97880.34
2022-10-31T08:27:35.276Z,97877.28
2022-10-31T08:30:11.683Z,97878.91
2022-10-31T08:33:04.485Z,97872.78
2022-10-31T08:35:50.724Z,97873.38
2022-10-31T08:38:37.354Z,97877.00
2022-10-31T08:41:05.287Z,97888.13
2022-10-31T08:43:33.726Z,97887.38
2022-10-31T08:46:01.834Z,97881.22
2022-10-31T08:48:33.006Z,97868.97
2022-10-31T08:51:02.716Z,97867.22
2022-10-31T08:53:31.513Z,97857.31
2022-10-31T08:56:18.070Z,97830.88
2022-10-31T08:58:47.666Z,97824.97
2022-10-31T09:01:19.423Z,97800.72
2022-10-31T09:03:49.011Z,97763.88
2022-10-31T09:06:16.935Z,97726.50
2022-10-31T09:08:44.977Z,97693.22
2022-10-31T09:11:12.995Z,97661.19
2022-10-31T09:14:03.780Z,97588.56
2022-10-31T09:16:43.426Z,97546.69
2022-10-31T09:19:29.628Z,97512.66
2022-10-31T09:21:57.725Z,97529.34
2022-10-31T09:24:29.860Z,97547.31
2022-10-31T09:26:57.813Z,97546.47
2022-10-31T09:29:33.206Z,97555.25
2022-10-31T09:32:08.772Z,97565.72
2022-10-31T09:34:45.548Z,97563.22
2022-10-31T09:37:21.772Z,97564.50
2022-10-31T09:43:30.579Z,97529.28
2022-10-31T09:46:07.114Z,97551.22
2022-10-31T09:49:10.567Z,97559.63
2022-10-31T09:52:12.447Z,97574.25
2022-10-31T09:54:46.439Z,97601.44
2022-10-31T09:57:22.762Z,97602.06
2022-10-31T09:59:51.843Z,97618.44
2022-10-31T10:02:41.007Z,97619.50
2022-10-31T10:05:24.358Z,97605.09
2022-10-31T10:08:05.589Z,97544.72
2022-10-31T10:11:40.414Z,97635.50
2022-10-31T10:14:44.550Z,97655.25
2022-10-31T10:17:24.198Z,97658.38
2022-10-31T10:20:27.637Z,97630.97
2022-10-31T10:23:10.845Z,97631.41
2022-10-31T10:25:41.803Z,97632.25
2022-10-31T10:28:40.610Z,97646.47
2022-10-31T10:31:13.923Z,97655.69
2022-10-31T10:33:49.792Z,97655.25
2022-10-31T10:36:57.934Z,97659.25
2022-10-31T10:39:31.728Z,97656.09
2022-10-31T10:42:24.513Z,97666.97
2022-10-31T10:45:16.836Z,97661.94
2022-10-31T10:47:53.862Z,97666.38
2022-10-31T10:50:28.341Z,97666.16
2022-10-31T10:53:11.608Z,97666.16
2022-10-31T10:55:51.199Z,97689.41
2022-10-31T10:58:25.218Z,97690.03
2022-10-31T11:00:57.521Z,97704.66
2022-10-31T11:03:29.390Z,97703.00
2022-10-31T11:06:02.145Z,97731.09
2022-10-31T11:08:33.371Z,97700.28
2022-10-31T11:11:13.694Z,97696.31
2022-10-31T11:13:44.211Z,97690.00
2022-10-31T11:16:15.554Z,97689.81
2022-10-31T11:18:46.920Z,97696.75
2022-10-31T11:21:23.949Z,97736.13
2022-10-31T11:23:52.145Z,97766.06
2022-10-31T11:26:23.135Z,97809.44
2022-10-31T11:28:59.585Z,97850.09
2022-10-31T11:31:29.514Z,97868.13
2022-10-31T11:34:00.571Z,97877.75
2022-10-31T11:36:34.574Z,97906.72
2022-10-31T11:39:07.446Z,97906.50
2022-10-31T11:41:40.874Z,97918.03
2022-10-31T11:44:17.203Z,97924.72
2022-10-31T11:46:49.432Z,97935.22
2022-10-31T11:49:20.631Z,97928.50
2022-10-31T11:51:53.038Z,97953.47
2022-10-31T11:54:30.188Z,98053.78
2022-10-31T11:56:59.881Z,98117.38
2022-10-31T11:59:30.730Z,98073.63
2022-10-31T12:02:05.414Z,98085.81
2022-10-31T12:04:49.625Z,98088.31
2022-10-31T12:07:17.980Z,98087.28
2022-10-31T12:09:46.138Z,98080.53
2022-10-31T12:12:38.342Z,98072.19
2022-10-31T12:15:21.907Z,98084.53
2022-10-31T12:20:35.853Z,98204.28
2022-10-31T12:23:21.653Z,98235.91
2022-10-31T12:25:53.912Z,98255.88
2022-10-31T12:28:44.884Z,98340.72
2022-10-31T12:31:35.685Z,98380.78
2022-10-31T12:34:34.588Z,98425.31
2022-10-31T12:37:10.950Z,98438.97
2022-10-31T12:39:46.902Z,98444.41
2022-10-31T12:42:26.999Z,98493.25
2022-10-31T12:45:11.286Z,98554.41
2022-10-31T12:48:10.640Z,98559.50
2022-10-31T12:50:52.795Z,98557.53
2022-10-31T12:53:32.815Z,98584.06
2022-10-31T12:56:17.517Z,98589.53
2022-10-31T12:58:52.485Z,98626.78
2022-10-31T13:01:26.702Z,98636.66
2022-10-31T13:04:00.045Z,98639.59
2022-10-31T13:06:34.854Z,98648.50
2022-10-31T13:09:07.433Z,98684.44
2022-10-31T13:11:39.592Z,98728.84
2022-10-31T13:14:13.391Z,98712.81
2022-10-31T13:16:49.005Z,98688.75
2022-10-31T13:19:21.118Z,98714.94
2022-10-31T13:21:58.178Z,98721.66
2022-10-31T13:24:33.667Z,98729.63
2022-10-31T13:27:05.776Z,98691.56
2022-10-31T13:29:38.206Z,98650.13
2022-10-31T13:32:09.075Z,98639.66
2022-10-31T13:34:40.589Z,98601.56
2022-10-31T13:37:53.706Z,98619.88
2022-10-31T13:40:32.830Z,98703.94
2022-10-31T13:43:12.515Z,98668.66
2022-10-31T13:45:50.771Z,98673.50
2022-10-31T13:48:42.244Z,98725.53
2022-10-31T13:51:12.525Z,98772.19
2022-10-31T13:53:43.624Z,98857.28
2022-10-31T13:56:23.247Z,98873.16
2022-10-31T13:59:04.141Z,98854.66
2022-10-31T14:01:33.650Z,98830.34
2022-10-31T14:04:15.047Z,98852.06
2022-10-31T14:06:53.549Z,98845.50
2022-10-31T14:09:26.154Z,98797.06
2022-10-31T14:11:55.182Z,98761.28
2022-10-31T14:14:29.858Z,98714.59
2022-10-31T14:17:00.000Z,98700.78
2022-10-31T14:19:29.648Z,98768.97
2022-10-31T14:21:57.973Z,98844.00
2022-10-31T14:24:53.627Z,98851.72
2022-10-31T14:27:47.573Z,98840.28
2022-10-31T14:30:23.448Z,98867.47
2022-10-31T14:32:57.114Z,98833.28
2022-10-31T14:35:39.143Z,98780.03
2022-10-31T14:38:20.978Z,98781.56
2022-10-31T14:41:14.172Z,98743.66
2022-10-31T14:44:14.918Z,98721.34
2022-10-31T14:46:52.947Z,98679.91
2022-10-31T14:49:36.568Z,98617.47
2022-10-31T14:52:10.518Z,98623.16
2022-10-31T14:54:42.884Z,98586.81
2022-10-31T14:57:17.817Z,98562.81
2022-10-31T14:59:50.708Z,98519.97
2022-10-31T15:02:26.548Z,98534.84
2022-10-31T15:04:57.433Z,98613.38
2022-10-31T15:07:29.812Z,98637.94
2022-10-31T15:10:00.789Z,98655.63
2022-10-31T15:12:31.380Z,98674.31
2022-10-31T15:15:00.321Z,98663.75
2022-10-31T15:17:28.960Z,98700.22
2022-10-31T15:20:08.781Z,98741.47
2022-10-31T15:22:40.983Z,98770.50
2022-10-31T15:25:19.586Z,98762.84
2022-10-31T15:27:49.527Z,98791.91
2022-10-31T15:30:52.009Z,98742.94
2022-10-31T15:33:26.012Z,98731.19
2022-10-31T15:35:59.481Z,98721.03
2022-10-31T15:38:33.861Z,98728.84
2022-10-31T15:41:05.681Z,98738.78
2022-10-31T15:43:38.757Z,98762.97
2022-10-31T15:46:12.222Z,98712.78
2022-10-31T15:48:41.680Z,98712.13
2022-10-31T15:51:12.398Z,98643.03
2022-10-31T15:53:47.053Z,98597.84
2022-10-31T15:56:23.156Z,98523.25
2022-10-31T15:58:53.684Z,98446.41
2022-10-31T16:01:25.494Z,98399.81
2022-10-31T16:04:06.422Z,98320.66
2022-10-31T16:06:36.245Z,98281.44
2022-10-31T16:09:22.670Z,98240.25
2022-10-31T16:11:51.103Z,98202.91
2022-10-31T16:14:25.540Z,98170.00
2022-10-31T16:16:57.096Z,98130.38
2022-10-31T16:19:29.132Z,98099.34
2022-10-31T16:22:06.454Z,98067.88
2022-10-31T16:24:49.901Z,98029.72
2022-10-31T16:27:24.299Z,98014.41
2022-10-31T16:32:53.438Z,97977.75
2022-10-31T16:35:28.504Z,97958.91
2022-10-31T16:37:57.125Z,97942.16
2022-10-31T16:40:27.079Z,97932.50
2022-10-31T16:42:55.220Z,97914.69
2022-10-31T16:45:25.446Z,97913.41
2022-10-31T16:47:53.990Z,97915.94
2022-10-31T16:50:23.496Z,97896.47
2022-10-31T16:53:12.858Z,97896.00
2022-10-31T16:55:46.727Z,97883.47
2022-10-31T16:58:22.880Z,97859.56
2022-10-31T17:01:16.326Z,97843.44
2022-10-31T17:03:44.456Z,97832.31
2022-10-31T17:06:14.191Z,97835.44
2022-10-31T17:08:42.241Z,97831.66
2022-10-31T17:11:17.372Z,97815.13
2022-10-31T17:13:45.316Z,97803.81
2022-10-31T17:16:15.553Z,97795.84
2022-10-31T17:18:43.863Z,97783.72
2022-10-31T17:21:28.026Z,97777.44
2022-10-31T17:23:56.290Z,97778.66
2022-10-31T17:26:25.576Z,97769.03
2022-10-31T17:28:53.525Z,97771.75
2022-10-31T17:31:24.169Z,97763.38
2022-10-31T17:33:52.164Z,97755.81
2022-10-31T17:36:20.124Z,97754.13
2022-10-31T17:38:48.218Z,97745.78
2022-10-31T17:41:16.377Z,97738.63
2022-10-31T17:43:45.852Z,97743.69
2022-10-31T17:46:13.973Z,97740.13
2022-10-31T17:48:42.248Z,97740.72
2022-10-31T17:51:10.322Z,97713.50
2022-10-31T17:53:39.418Z,97712.69
2022-10-31T17:56:09.518Z,97716.69
2022-10-31T17:58:38.555Z,97721.91
2022-10-31T18:01:11.257Z,97719.56
2022-10-31T18:03:39.901Z,97724.19
2022-10-31T18:06:09.036Z,97736.72
2022-10-31T18:08:48.130Z,97839.56
2022-10-31T18:11:20.595Z,97889.16
2022-10-31T18:13:48.774Z,97934.81
2022-10-31T18:16:19.277Z,98001.16
2022-10-31T18:18:51.399Z,98094.63
2022-10-31T18:21:19.504Z,98200.25
2022-10-31T18:23:47.825Z,98246.09
2022-10-31T18:26:16.109Z,98306.81
2022-10-31T18:28:44.433Z,98405.88
2022-10-31T18:31:13.121Z,98445.22
2022-10-31T18:33:43.554Z,98479.69
2022-10-31T18:36:12.375Z,98514.03
2022-10-31T18:38:41.382Z,98517.81
2022-10-31T18:41:10.375Z,98538.00
2022-10-31T18:43:47.501Z,98520.72
2022-10-31T18:46:18.089Z,98534.78
2022-10-31T18:48:47.648Z,98587.41
2022-10-31T18:51:18.561Z,98601.03
2022-10-31T18:54:07.324Z,98606.09
2022-10-31T18:56:35.420Z,98571.34
2022-10-31T18:59:03.500Z,98549.84
2022-10-31T19:01:32.086Z,98588.22
2022-10-31T19:04:01.590Z,98646.75
2022-10-31T19:06:30.944Z,98663.28
2022-10-31T19:09:00.599Z,98646.38
2022-10-31T19:11:28.918Z,98624.50
2022-10-31T19:13:58.452Z,98620.25
2022-10-31T19:16:33.828Z,98613.78
2022-10-31T19:19:03.957Z,98588.91
2022-10-31T19:21:32.452Z,98598.78
2022-10-31T19:24:01.457Z,98637.56
2022-10-31T19:26:30.097Z,98613.72
2022-10-31T19:28:58.403Z,98618.78
2022-10-31T19:31:26.601Z,98575.91
2022-10-31T19:33:54.757Z,98581.47
2022-10-31T19:36:24.425Z,98560.63
2022-10-31T19:38:53.908Z,98532.66
2022-10-31T19:41:23.833Z,98530.28
2022-10-31T19:43:52.153Z,98509.94
2022-10-31T19:46:40.527Z,98445.59
2022-10-31T19:49:11.100Z,98439.75
2022-10-31T19:51:40.952Z,98446.50
2022-10-31T19:54:09.113Z,98428.19
2022-10-31T19:56:37.762Z,98415.16
2022-10-31T19:59:06.108Z,98388.34
2022-10-31T20:01:34.444Z,98391.72
2022-10-31T20:04:02.673Z,98419.28
2022-10-31T20:06:33.493Z,98376.81
2022-10-31T20:09:05.487Z,98375.75
2022-10-31T20:11:37.964Z,98393.22
2022-10-31T20:14:06.438Z,98367.50
2022-10-31T20:16:34.828Z,98335.63
2022-10-31T20:19:03.021Z,98307.13
2022-10-31T20:21:38.785Z,98270.19
2022-10-31T20:24:10.140Z,98229.50
2022-10-31T20:26:40.768Z,98190.91
2022-10-31T20:29:13.558Z,98193.44
2022-10-31T20:31:41.965Z,98211.13
2022-10-31T20:34:10.044Z,98232.19
2022-10-31T20:36:54.921Z,98256.09
2022-10-31T20:39:24.725Z,98234.03
2022-10-31T20:41:52.959Z,98225.66
2022-10-31T20:44:21.176Z,98235.56
2022-10-31T20:46:51.966Z,98281.38
2022-10-31T20:49:20.314Z,98371.66
2022-10-31T20:51:48.614Z,98373.66
2022-10-31T20:54:19.077Z,98368.22
2022-10-31T20:56:49.346Z,98335.44
2022-10-31T20:59:28.484Z,98332.97
2022-10-31T21:01:57.075Z,98321.63
2022-10-31T21:04:25.496Z,98330.44
2022-10-31T21:06:53.580Z,98369.81
2022-10-31T21:09:21.833Z,98336.16
2022-10-31T21:11:52.590Z,98349.81
2022-10-31T21:14:20.686Z,98367.47
2022-10-31T21:16:48.953Z,98367.47
2022-10-31T21:19:17.446Z,98412.09
2022-10-31T21:21:45.803Z,98459.56
2022-10-31T21:24:20.471Z,98460.97
2022-10-31T21:27:02.926Z,98477.59
2022-10-31T21:29:38.196Z,98489.47
2022-10-31T21:32:14.940Z,98460.34
2022-10-31T21:34:46.537Z,98492.56
2022-10-31T21:37:14.796Z,98488.50
2022-10-31T21:39:49.626Z,98479.97
2022-10-31T21:42:23.236Z,98454.31
2022-10-31T21:44:51.555Z,98499.38
2022-10-31T21:47:19.643Z,98480.25
2022-10-31T21:49:47.861Z,98488.69
2022-10-31T21:52:15.990Z,98483.63
2022-10-31T21:54:43.012Z,98500.41
2022-10-31T21:57:15.287Z,98494.50
2022-10-31T21:59:48.524Z,98508.41
2022-10-31T22:02:18.691Z,98516.19
2022-10-31T22:04:48.671Z,98555.13
2022-10-31T22:07:16.765Z,98491.50
2022-10-31T22:09:47.338Z,98436.88
2022-10-31T22:12:16.558Z,98458.00
2022-10-31T22:14:46.081Z,98455.44
2022-10-31T22:17:14.210Z,98439.09
2022-10-31T22:19:42.231Z,98411.59
2022-10-31T22:22:13.901Z,98408.88
2022-10-31T22:24:41.966Z,98434.59
2022-10-31T22:27:10.305Z,98465.84
2022-10-31T22:29:38.577Z,98436.56
2022-10-31T22:32:08.290Z,98410.75
2022-10-31T22:34:37.307Z,98414.31
2022-10-31T22:37:05.454Z,98408.88
2022-10-31T22:39:33.903Z,98377.78
2022-10-31T22:42:04.632Z,98384.75
2022-10-31T22:44:36.797Z,98426.22
2022-10-31T22:47:12.449Z,98418.81
2022-10-31T22:49:42.502Z,98391.47
2022-10-31T22:52:13.601Z,98357.44
2022-10-31T22:54:42.135Z,98338.78
2022-10-31T22:57:12.593Z,98372.41
2022-10-31T23:00:00.853Z,98358.56
2022-10-31T23:02:30.555Z,98345.97
2022-10-31T23:04:58.778Z,98370.75
2022-10-31T23:07:36.638Z,98345.53
2022-10-31T23:10:05.132Z,98354.41
2022-10-31T23:12:56.321Z,98347.03
2022-10-31T23:15:26.253Z,98366.97
2022-10-31T23:17:57.883Z,98376.19
2022-10-31T23:20:27.078Z,98341.94
2022-10-31T23:22:55.294Z,98367.19
2022-10-31T23:25:40.772Z,98333.34
2022-10-31T23:28:08.992Z,98333.41
2022-10-31T23:30:37.037Z,98368.31
2022-10-31T23:33:06.502Z,98365.75
2022-10-31T23:35:37.716Z,98394.00
2022-10-31T23:38:05.645Z,98404.91
2022-10-31T23:40:34.109Z,98379.84
2022-10-31T23:43:02.099Z,98332.56
2022-10-31T23:45:30.045Z,98342.28
2022-10-31T23:47:58.252Z,98340.16
2022-10-31T23:50:27.713Z,98342.47
2022-10-31T23:52:55.940Z,98317.06
2022-10-31T23:55:25.317Z,98293.34
2022-10-31T23:58:00.924Z,98292.28
